Time;durP1;ratioP1;P1;durP2;ratioP2;P2;SDS_P1;SDS_P2;PMS_P1;PMS_P2;Temp;Humidity;BMP_temperature;BMP_pressure;BME280_temperature;BME280_humidity;BME280_pressure;Samples;Min_cycle;Max_cycle;Signal;HPM_P1;HPM_P2
2022/04/20 00:01:30;;;;;;;8.05;4.40;;;7.60;86.40;;;;;;5054634;28;20387;-75
2022/04/20 00:03:57;;;;;;;5.53;3.85;;;7.50;86.40;;;;;;5054660;28;20028;-75
2022/04/20 00:06:23;;;;;;;6.50;4.18;;;7.40;86.40;;;;;;5054621;28;20071;-75
2022/04/20 00:08:48;;;;;;;5.75;4.25;;;7.40;86.70;;;;;;5036527;28;20021;-76
2022/04/20 00:11:14;;;;;;;7.90;3.88;;;7.40;86.50;;;;;;5054437;28;20490;-75
2022/04/20 00:13:40;;;;;;;7.22;4.03;;;7.40;85.80;;;;;;5054461;28;20104;-75
2022/04/20 00:16:05;;;;;;;4.35;3.47;;;7.40;85.40;;;;;;5053469;28;20032;-73
2022/04/20 00:18:31;;;;;;;5.47;3.42;;;7.40;85.40;;;;;;5053512;28;20051;-75
2022/04/20 00:20:57;;;;;;;3.88;2.95;;;7.40;86.10;;;;;;5054313;28;20032;-74
2022/04/20 00:23:23;;;;;;;5.53;2.97;;;7.40;85.60;;;;;;5054245;28;20032;-75
2022/04/20 00:25:48;;;;;;;5.68;3.85;;;7.30;84.90;;;;;;5054078;28;20438;-75
2022/04/20 00:28:14;;;;;;;5.00;3.58;;;7.30;85.10;;;;;;5036552;28;20383;-75
2022/04/20 00:30:40;;;;;;;3.80;3.13;;;7.30;85.00;;;;;;5054043;28;20086;-74
2022/04/20 00:33:05;;;;;;;5.22;2.83;;;7.30;85.00;;;;;;5054026;28;20406;-75
2022/04/20 00:35:31;;;;;;;5.43;3.08;;;7.30;85.00;;;;;;5051748;28;20095;-75
2022/04/20 00:37:57;;;;;;;5.95;2.70;;;7.30;84.70;;;;;;5035930;28;20032;-75
2022/04/20 00:40:23;;;;;;;4.15;2.60;;;7.30;84.50;;;;;;5054383;28;20021;-74
2022/04/20 00:42:49;;;;;;;3.90;3.10;;;7.20;84.80;;;;;;5053984;28;20035;-74
2022/04/20 00:45:14;;;;;;;7.45;2.90;;;7.20;85.30;;;;;;5054109;28;20025;-76
2022/04/20 00:47:44;;;;;;;3.80;3.08;;;7.20;85.30;;;;;;5053905;28;20041;-75
2022/04/20 00:50:12;;;;;;;6.55;2.78;;;7.10;85.20;;;;;;5053824;28;20017;-75
2022/04/20 00:52:38;;;;;;;4.75;3.17;;;7.10;85.30;;;;;;5052848;28;20021;-75
2022/04/20 00:55:05;;;;;;;4.88;3.08;;;7.00;85.30;;;;;;5053621;28;20033;-74
2022/04/20 00:57:31;;;;;;;;;;;7.00;85.40;;;;;;5054031;28;20024;-74
2022/04/20 01:00:00;;;;;;;5.70;3.92;;;7.00;85.00;;;;;;5053827;28;20334;-75
2022/04/20 01:02:27;;;;;;;196.60;30.38;;;6.90;85.20;;;;;;5052349;28;20528;-75
2022/04/20 01:04:53;;;;;;;4.20;3.10;;;6.90;85.40;;;;;;5033414;28;20033;-74
2022/04/20 01:07:19;;;;;;;3.80;3.03;;;6.80;85.00;;;;;;5033519;28;20120;-75
2022/04/20 01:09:45;;;;;;;4.38;2.80;;;6.80;84.70;;;;;;5041561;28;20112;-74
2022/04/20 01:12:13;;;;;;;7.25;3.05;;;6.80;83.50;;;;;;5053429;28;20456;-75
2022/04/20 01:14:40;;;;;;;4.38;3.50;;;6.80;83.20;;;;;;5053345;28;20422;-75
2022/04/20 01:17:06;;;;;;;6.20;2.50;;;6.80;83.60;;;;;;5035307;28;20065;-75
2022/04/20 01:19:35;;;;;;;6.13;3.20;;;6.70;83.40;;;;;;5053173;28;20087;-74
2022/04/20 01:22:02;;;;;;;6.43;2.90;;;6.70;83.20;;;;;;5053202;28;20024;-74
2022/04/20 01:24:28;;;;;;;4.95;3.28;;;6.70;83.30;;;;;;5035285;28;20025;-75
2022/04/20 01:26:56;;;;;;;4.05;2.60;;;6.60;83.40;;;;;;5034173;28;20045;-75
2022/04/20 01:29:22;;;;;;;3.88;2.50;;;6.60;83.80;;;;;;5035023;28;20363;-76
2022/04/20 01:31:48;;;;;;;4.03;2.50;;;6.60;83.40;;;;;;5035024;28;20029;-77
2022/04/20 01:34:13;;;;;;;4.82;3.20;;;6.50;83.30;;;;;;5051734;28;20075;-74
2022/04/20 01:36:39;;;;;;;6.22;3.42;;;6.50;83.00;;;;;;5033008;28;20112;-76
2022/04/20 01:39:05;;;;;;;5.00;2.70;;;6.50;82.90;;;;;;5032893;28;20049;-76
2022/04/20 01:41:31;;;;;;;4.32;3.08;;;6.50;82.90;;;;;;5014828;28;20061;-75
2022/04/20 01:43:57;;;;;;;8.02;3.88;;;6.50;82.20;;;;;;5037689;28;20025;-74
2022/04/20 01:46:23;;;;;;;4.57;2.78;;;6.50;82.10;;;;;;5052300;28;20120;-73
2022/04/20 01:48:49;;;;;;;7.30;3.83;;;6.50;81.90;;;;;;5052504;28;20017;-73
2022/04/20 01:54:00;;;;;;;3.75;2.97;;;6.40;81.70;;;;;;5052865;28;20124;-74
2022/04/20 01:56:25;;;;;;;6.13;3.22;;;6.40;81.70;;;;;;5052501;28;20029;-75
2022/04/20 01:58:51;;;;;;;6.25;3.28;;;6.30;81.30;;;;;;5034620;28;20159;-75
2022/04/20 02:04:01;;;;;;;7.88;3.67;;;6.30;81.00;;;;;;5052609;28;20048;-74
2022/04/20 02:06:27;;;;;;;5.57;3.53;;;6.30;80.80;;;;;;5052431;28;20037;-74
2022/04/20 02:08:53;;;;;;;4.05;2.60;;;6.30;80.80;;;;;;5052776;28;20362;-75
2022/04/20 02:11:19;;;;;;;4.15;2.63;;;6.20;80.60;;;;;;5052490;28;20025;-76
2022/04/20 02:13:44;;;;;;;6.35;2.53;;;6.20;80.40;;;;;;5052521;28;20029;-76
2022/04/20 02:16:10;;;;;;;10.98;2.17;;;6.20;79.90;;;;;;5034250;28;20056;-74
2022/04/20 02:18:36;;;;;;;6.68;2.65;;;6.20;78.90;;;;;;5051316;28;20469;-76
2022/04/20 02:21:03;;;;;;;9.13;2.88;;;6.20;78.70;;;;;;5052107;28;20017;-75
2022/04/20 02:23:29;;;;;;;3.85;2.13;;;6.20;77.60;;;;;;5052016;28;20033;-74
2022/04/20 02:25:55;;;;;;;3.92;2.45;;;6.20;76.80;;;;;;5052011;28;20029;-75
2022/04/20 02:28:20;;;;;;;5.57;2.88;;;6.30;75.70;;;;;;5052225;28;20033;-75
2022/04/20 02:30:46;;;;;;;4.20;2.30;;;6.30;75.30;;;;;;5051867;28;20079;-75
2022/04/20 02:33:13;;;;;;;5.93;2.38;;;6.30;73.40;;;;;;5052024;28;20029;-75
2022/04/20 02:35:41;;;;;;;3.30;2.20;;;6.40;72.90;;;;;;5050844;28;20037;-74
2022/04/20 02:38:10;;;;;;;4.55;2.38;;;6.40;72.80;;;;;;5000369;28;20072;-75
2022/04/20 02:40:40;;;;;;;4.38;2.40;;;6.40;71.70;;;;;;5034604;28;20441;-74
2022/04/20 02:43:06;;;;;;;3.15;1.95;;;6.50;69.60;;;;;;5051805;28;20113;-75
2022/04/20 02:45:31;;;;;;;3.70;2.45;;;6.60;69.00;;;;;;5033815;28;20107;-74
2022/04/20 02:47:57;;;;;;;3.60;2.30;;;6.70;68.50;;;;;;5051920;28;20035;-75
2022/04/20 02:50:23;;;;;;;6.38;2.72;;;6.80;68.10;;;;;;5051148;28;20027;-75
2022/04/20 02:52:49;;;;;;;4.07;1.70;;;6.80;67.00;;;;;;5051714;28;20055;-74
2022/04/20 02:55:15;;;;;;;2.67;2.00;;;6.90;65.90;;;;;;5051690;28;20056;-75
2022/04/20 02:57:40;;;;;;;4.30;1.98;;;7.00;66.00;;;;;;5052088;28;20039;-75
2022/04/20 03:00:07;;;;;;;5.35;2.42;;;7.00;65.80;;;;;;5037872;28;20320;-75
2022/04/20 03:02:32;;;;;;;4.53;2.10;;;7.00;64.90;;;;;;5055849;28;20512;-75
2022/04/20 03:05:01;;;;;;;3.50;2.15;;;7.10;64.20;;;;;;5055750;28;20025;-77
2022/04/20 03:07:27;;;;;;;2.78;1.80;;;7.20;63.70;;;;;;5055757;28;20537;-74
2022/04/20 03:09:53;;;;;;;2.58;1.70;;;7.30;61.30;;;;;;5054885;28;20021;-75
2022/04/20 03:12:19;;;;;;;3.38;2.28;;;7.40;61.10;;;;;;5055618;28;20036;-75
2022/04/20 03:14:45;;;;;;;5.40;2.33;;;7.40;59.90;;;;;;5037604;28;20029;-75
2022/04/20 03:17:12;;;;;;;5.10;2.15;;;7.50;59.20;;;;;;5037631;28;20497;-76
2022/04/20 03:19:37;;;;;;;6.28;1.98;;;7.50;58.70;;;;;;5055540;28;20025;-75
2022/04/20 03:22:03;;;;;;;6.70;1.77;;;7.60;58.40;;;;;;5037755;28;20107;-75
2022/04/20 03:24:29;;;;;;;4.43;1.85;;;7.70;57.40;;;;;;5036616;28;20013;-74
2022/04/20 03:26:55;;;;;;;2.80;1.55;;;7.80;56.30;;;;;;5055405;28;20569;-76
2022/04/20 03:29:21;;;;;;;5.65;1.95;;;7.80;56.10;;;;;;5055289;28;20429;-75
2022/04/20 03:31:46;;;;;;;3.35;1.70;;;7.90;54.70;;;;;;5055517;28;20075;-75
2022/04/20 03:34:13;;;;;;;5.05;2.60;;;7.90;54.60;;;;;;5055088;28;20021;-74
2022/04/20 03:36:38;;;;;;;3.00;1.75;;;7.90;55.00;;;;;;5053401;28;20029;-76
2022/04/20 03:39:05;;;;;;;6.25;1.98;;;8.00;55.10;;;;;;5055115;28;20059;-73
2022/04/20 03:41:30;;;;;;;7.35;3.50;;;8.00;55.10;;;;;;5054009;28;20037;-75
2022/04/20 03:43:56;;;;;;;4.95;2.63;;;8.00;55.20;;;;;;5037199;28;20051;-75
2022/04/20 03:46:23;;;;;;;2.50;1.20;;;8.10;55.40;;;;;;5055216;28;20033;-76
2022/04/20 03:48:50;;;;;;;6.88;3.90;;;8.10;55.40;;;;;;5054944;28;20024;-75
2022/04/20 03:51:16;;;;;;;7.00;2.83;;;8.10;55.10;;;;;;5055132;28;20478;-75
2022/04/20 03:53:42;;;;;;;6.82;4.22;;;8.10;55.30;;;;;;5054997;28;20658;-75
2022/04/20 03:56:08;;;;;;;8.25;3.78;;;8.10;55.70;;;;;;5053634;28;20025;-74
2022/04/20 03:58:34;;;;;;;7.60;2.85;;;8.20;53.90;;;;;;5054680;28;20021;-74
2022/04/20 04:01:00;;;;;;;10.48;4.85;;;8.20;53.70;;;;;;5054692;28;20064;-75
2022/04/20 04:03:26;;;;;;;10.52;4.35;;;8.30;53.70;;;;;;5054979;28;20490;-76
2022/04/20 04:05:52;;;;;;;3.63;2.10;;;8.30;53.20;;;;;;5054565;28;20053;-73
2022/04/20 04:08:18;;;;;;;5.15;2.05;;;8.40;53.40;;;;;;5036522;28;20044;-76
2022/04/20 04:10:48;;;;;;;8.15;2.17;;;8.50;53.20;;;;;;5054492;28;20017;-75
2022/04/20 04:13:13;;;;;;;10.57;2.88;;;8.60;52.70;;;;;;5053382;28;20052;-74
2022/04/20 04:15:39;;;;;;;6.60;2.75;;;8.70;52.60;;;;;;5036384;28;20053;-74
2022/04/20 04:18:05;;;;;;;9.23;2.10;;;8.80;51.90;;;;;;5054577;28;20040;-74
2022/04/20 04:20:31;;;;;;;8.23;3.42;;;8.80;51.90;;;;;;5036369;28;20025;-75
2022/04/20 04:22:57;;;;;;;7.47;2.00;;;8.90;51.70;;;;;;5053304;28;20029;-75
2022/04/20 04:25:23;;;;;;;5.03;2.22;;;9.00;51.90;;;;;;5036325;28;20392;-76
2022/04/20 04:27:49;;;;;;;10.57;2.85;;;9.00;51.90;;;;;;5054057;28;20029;-75
2022/04/20 04:30:14;;;;;;;5.47;2.58;;;9.10;51.50;;;;;;5053200;28;20037;-76
2022/04/20 04:32:40;;;;;;;6.85;2.53;;;9.10;51.10;;;;;;5053917;28;20071;-75
2022/04/20 04:35:08;;;;;;;8.38;4.00;;;9.30;51.40;;;;;;5053942;28;20553;-75
2022/04/20 04:37:34;;;;;;;;;;;9.70;50.70;;;;;;5054468;28;20060;-74
2022/04/20 04:40:00;;;;;;;5.47;2.70;;;10.20;50.30;;;;;;5035934;28;19943;-76
2022/04/20 04:42:26;;;;;;;5.80;2.13;;;10.70;47.90;;;;;;5053876;28;20033;-76
2022/04/20 04:44:53;;;;;;;7.45;2.88;;;11.20;46.10;;;;;;5035419;28;20367;-77
2022/04/20 04:50:04;;;;;;;9.10;2.92;;;11.90;44.80;;;;;;5054213;28;20055;-76
2022/04/20 04:52:31;;;;;;;7.53;2.85;;;12.50;44.00;;;;;;5053574;28;20070;-77
2022/04/20 04:54:57;;;;;;;9.40;2.50;;;13.00;43.10;;;;;;5053447;28;20021;-77
2022/04/20 04:57:23;;;;;;;8.48;2.42;;;13.70;41.50;;;;;;5035581;28;20441;-75
2022/04/20 04:59:48;;;;;;;4.90;2.05;;;14.40;39.70;;;;;;5053436;28;20467;-76
2022/04/20 05:02:14;;;;;;;8.80;2.67;;;14.40;38.70;;;;;;5053063;28;20051;-78
2022/04/20 05:04:40;;;;;;;7.03;3.35;;;14.90;38.10;;;;;;5052556;28;20394;-77
2022/04/20 05:07:06;;;;;;;6.65;2.70;;;15.10;37.80;;;;;;5053312;28;20037;-75
2022/04/20 05:09:32;;;;;;;12.02;2.15;;;14.80;36.80;;;;;;5053389;28;20032;-76
2022/04/20 05:12:02;;;;;;;9.00;2.20;;;15.20;36.60;;;;;;5053488;28;20048;-79
2022/04/20 05:14:28;;;;;;;11.20;2.63;;;15.60;35.70;;;;;;5053275;28;20040;-77
2022/04/20 05:16:55;;;;;;;29.45;14.60;;;15.90;35.40;;;;;;5052941;28;20097;-77
2022/04/20 05:19:21;;;;;;;3.83;1.40;;;16.60;35.50;;;;;;5052649;28;20021;-76
2022/04/20 05:21:48;;;;;;;9.07;3.28;;;16.30;32.40;;;;;;5050174;28;20037;-75
2022/04/20 05:24:14;;;;;;;3.05;1.60;;;16.10;33.20;;;;;;5032247;28;20386;-76
2022/04/20 05:26:40;;;;;;;12.00;4.55;;;16.20;32.10;;;;;;5034550;28;20486;-76
2022/04/20 05:29:07;;;;;;;14.25;4.25;;;16.20;31.50;;;;;;5052824;28;20032;-76
2022/04/20 05:31:32;;;;;;;10.15;2.00;;;16.00;31.20;;;;;;5052795;28;20100;-75
2022/04/20 05:33:58;;;;;;;6.00;1.63;;;16.30;30.90;;;;;;5052510;28;20099;-77
2022/04/20 05:36:24;;;;;;;12.75;2.85;;;16.60;30.70;;;;;;5049563;28;20518;-77
2022/04/20 05:41:40;;;;;;;9.45;1.85;;;17.70;29.80;;;;;;5052640;28;20035;-75
2022/04/20 05:44:10;;;;;;;15.30;3.92;;;18.10;28.90;;;;;;5034569;28;20035;-76
2022/04/20 05:46:36;;;;;;;9.55;3.05;;;18.20;28.60;;;;;;5052243;28;20112;-76
2022/04/20 05:49:03;;;;;;;16.02;2.83;;;18.20;28.40;;;;;;5052118;28;20121;-76
2022/04/20 05:51:29;;;;;;;7.03;2.33;;;18.80;28.10;;;;;;5034303;28;20057;-76
2022/04/20 05:53:58;;;;;;;12.82;2.35;;;19.00;27.70;;;;;;5033599;28;20315;-76
2022/04/20 05:56:24;;;;;;;8.25;1.60;;;19.20;27.50;;;;;;5052513;28;20029;-76
2022/04/20 05:58:52;;;;;;;8.65;2.40;;;18.80;27.30;;;;;;5053086;28;20332;-76
2022/04/20 06:01:22;;;;;;;10.98;4.90;;;18.70;27.50;;;;;;5052620;28;20449;-78
2022/04/20 06:03:48;;;;;;;12.20;3.40;;;18.80;28.00;;;;;;5052265;28;20027;-77
2022/04/20 06:06:14;;;;;;;12.77;3.20;;;19.40;28.10;;;;;;5034133;28;20106;-76
2022/04/20 06:08:43;;;;;;;10.35;3.35;;;20.30;27.60;;;;;;5052309;28;20017;-76
2022/04/20 06:11:11;;;;;;;24.80;3.67;;;21.10;27.10;;;;;;5033145;28;20036;-76
2022/04/20 06:13:37;;;;;;;11.10;1.45;;;22.20;26.90;;;;;;5052340;28;20107;-78
2022/04/20 06:16:07;;;;;;;4.68;1.63;;;22.70;25.40;;;;;;5052112;28;20025;-76
2022/04/20 06:18:33;;;;;;;8.38;1.83;;;21.60;26.00;;;;;;5052108;28;20028;-76
2022/04/20 06:20:59;;;;;;;4.75;1.65;;;20.90;26.60;;;;;;5051486;28;20052;-76
2022/04/20 06:23:24;;;;;;;9.55;2.08;;;21.10;26.60;;;;;;5051492;28;20028;-76
2022/04/20 06:25:55;;;;;;;3.10;1.70;;;20.90;26.70;;;;;;5051532;28;20049;-75
2022/04/20 06:28:23;;;;;;;8.07;1.80;;;21.40;26.50;;;;;;5050832;28;20446;-77
2022/04/20 06:30:49;;;;;;;6.95;1.52;;;21.50;26.60;;;;;;5033781;28;20044;-77
2022/04/20 06:33:15;;;;;;;8.43;2.50;;;22.10;26.10;;;;;;5052114;28;20109;-76
2022/04/20 06:35:40;;;;;;;3.92;1.80;;;21.50;26.30;;;;;;5051179;28;20040;-78
2022/04/20 06:38:06;;;;;;;7.15;1.77;;;21.50;26.70;;;;;;5051104;28;20055;-75
2022/04/20 06:40:32;;;;;;;8.25;1.65;;;21.20;26.60;;;;;;5051047;28;20048;-77
2022/04/20 06:42:58;;;;;;;9.32;3.20;;;21.00;27.10;;;;;;5050893;28;20021;-76
2022/04/20 06:45:24;;;;;;;8.35;2.75;;;21.00;27.10;;;;;;5048922;28;20747;-77
2022/04/20 06:47:49;;;;;;;7.43;2.28;;;20.70;27.30;;;;;;5031079;28;20124;-78
2022/04/20 06:50:16;;;;;;;6.72;1.80;;;20.80;27.50;;;;;;5018042;28;20036;-77
2022/04/20 07:00:55;;;;;;;6.20;2.22;;;21.70;26.60;;;;;;5041521;28;20028;-79
2022/04/20 07:03:21;;;;;;;7.63;1.38;;;21.80;27.10;;;;;;5032854;28;20116;-82
2022/04/20 07:05:47;;;;;;;6.82;2.10;;;22.40;27.00;;;;;;5051446;28;20483;-78
2022/04/20 07:08:12;;;;;;;5.15;1.65;;;22.50;26.30;;;;;;5051393;28;20025;-79
2022/04/20 07:10:38;;;;;;;6.20;2.42;;;22.20;26.50;;;;;;5051413;28;20025;-79
2022/04/20 07:13:04;;;;;;;5.65;1.52;;;22.40;26.20;;;;;;5051507;28;20040;-82
2022/04/20 07:15:30;;;;;;;9.88;2.95;;;22.40;26.00;;;;;;5032447;28;20045;-80
2022/04/20 07:17:55;;;;;;;5.45;2.28;;;22.30;26.40;;;;;;5051550;28;20116;-81
2022/04/20 07:20:21;;;;;;;6.40;1.45;;;22.80;26.20;;;;;;5051615;28;20033;-81
2022/04/20 07:22:48;;;;;;;8.43;1.75;;;23.30;24.80;;;;;;5032890;28;20033;-80
2022/04/20 07:25:16;;;;;;;8.25;2.78;;;22.60;25.30;;;;;;5051298;28;20028;-81
2022/04/20 07:27:42;;;;;;;2.38;1.30;;;22.80;25.20;;;;;;5033027;28;20048;-80
2022/04/20 07:30:08;;;;;;;15.35;5.25;;;22.90;24.90;;;;;;5051778;28;20053;-81
2022/04/20 07:32:34;;;;;;;9.05;1.85;;;23.00;25.20;;;;;;5050977;28;20082;-81
2022/04/20 07:35:00;;;;;;;21.23;3.65;;;23.70;24.70;;;;;;5050894;28;20049;-81
2022/04/20 07:37:26;;;;;;;13.80;3.72;;;24.30;24.50;;;;;;5051252;28;20098;-80
2022/04/20 07:39:51;;;;;;;6.45;1.90;;;24.80;24.20;;;;;;5050435;28;20030;-82
2022/04/20 07:42:20;;;;;;;8.88;1.80;;;25.40;23.70;;;;;;5033255;28;20363;-82
2022/04/20 07:44:45;;;;;;;9.80;1.77;;;24.70;23.80;;;;;;5053199;28;20107;-82
2022/04/20 07:47:11;;;;;;;6.57;1.60;;;24.60;24.10;;;;;;5054953;28;20159;-81
2022/04/20 07:52:21;;;;;;;12.10;3.10;;;25.10;23.70;;;;;;5055198;28;20036;-81
2022/04/20 07:54:47;;;;;;;6.75;1.40;;;24.30;23.70;;;;;;5055274;28;20382;-82
2022/04/20 07:57:15;;;;;;;8.07;2.03;;;23.80;24.50;;;;;;5035895;28;20502;-80
2022/04/20 07:59:41;;;;;;;5.32;2.05;;;24.00;24.20;;;;;;5036000;28;20043;-80
2022/04/20 08:02:07;;;;;;;8.75;1.92;;;23.70;23.70;;;;;;5036297;28;20053;-80
2022/04/20 08:04:33;;;;;;;2.35;1.20;;;23.40;24.00;;;;;;5054598;28;20555;-80
2022/04/20 08:06:59;;;;;;;3.90;1.30;;;23.60;24.00;;;;;;5054545;28;20063;-80
2022/04/20 08:09:25;;;;;;;3.20;1.35;;;23.80;23.80;;;;;;5055005;28;20053;-79
2022/04/20 08:11:51;;;;;;;10.57;2.05;;;23.60;23.60;;;;;;5055520;28;20033;-78
2022/04/20 08:14:17;;;;;;;14.63;2.70;;;23.10;24.10;;;;;;5053806;28;20021;-79
2022/04/20 08:16:43;;;;;;;4.30;1.42;;;23.60;23.80;;;;;;5054547;28;20521;-79
2022/04/20 08:19:10;;;;;;;13.05;2.35;;;24.40;23.40;;;;;;5054262;28;20114;-80
2022/04/20 08:21:36;;;;;;;11.40;1.57;;;24.10;23.20;;;;;;5054067;28;20071;-79
2022/04/20 08:24:03;;;;;;;10.82;2.28;;;24.00;23.60;;;;;;5054124;28;20258;-81
2022/04/20 08:26:29;;;;;;;8.02;1.58;;;25.20;23.00;;;;;;5054126;28;20115;-79
2022/04/20 08:28:54;;;;;;;6.75;2.30;;;25.40;22.20;;;;;;5053150;28;20112;-80
2022/04/20 08:31:20;;;;;;;8.98;1.55;;;24.60;22.30;;;;;;5035839;28;20458;-82
2022/04/20 08:33:46;;;;;;;6.78;1.77;;;24.20;22.50;;;;;;5054243;28;20450;-82
2022/04/20 08:36:12;;;;;;;6.85;1.20;;;24.10;22.40;;;;;;5053914;28;20072;-80
2022/04/20 08:38:39;;;;;;;13.18;1.90;;;24.10;22.30;;;;;;5053975;28;20101;-81
2022/04/20 08:41:05;;;;;;;12.63;2.28;;;24.90;22.20;;;;;;5053800;28;20064;-80
2022/04/20 08:43:32;;;;;;;14.00;1.85;;;25.10;21.90;;;;;;5019475;28;20057;-80
2022/04/20 08:46:02;;;;;;;17.77;2.80;;;25.10;21.90;;;;;;5034946;28;20033;-83
2022/04/20 08:48:29;;;;;;;14.77;2.40;;;24.80;22.30;;;;;;5053846;28;20029;-78
2022/04/20 08:50:56;;;;;;;9.13;2.97;;;25.10;21.60;;;;;;5053329;28;20052;-79
2022/04/20 08:53:23;;;;;;;10.77;2.45;;;25.00;22.00;;;;;;5053454;28;20033;-79
2022/04/20 08:57:15;;;;;;;6.05;1.70;;;25.70;21.80;;;;;;5052275;28;20013;-79
2022/04/20 08:58:38;;;;;;;4.63;2.60;;;25.60;21.40;;;;;;5053267;28;20060;-80
2022/04/20 09:01:04;;;;;;;6.65;1.42;;;24.60;21.80;;;;;;5034720;28;20124;-81
2022/04/20 09:03:33;;;;;;;10.68;2.15;;;24.00;21.80;;;;;;5054420;28;20309;-80
2022/04/20 09:06:00;;;;;;;11.25;2.03;;;24.60;22.40;;;;;;5054114;28;20025;-82
2022/04/20 09:08:26;;;;;;;3.40;1.80;;;25.50;21.80;;;;;;5053143;28;20421;-79
2022/04/20 09:10:53;;;;;;;6.07;1.45;;;23.90;21.80;;;;;;5053082;28;20094;-80
2022/04/20 09:13:31;;;;;;;12.10;2.13;;;22.70;22.70;;;;;;5052889;28;20017;-80
2022/04/20 09:16:06;;;;;;;8.48;2.35;;;21.80;23.50;;;;;;5053365;28;20394;-78
2022/04/20 09:18:32;;;;;;;5.80;1.63;;;21.70;24.00;;;;;;5052224;28;20036;-81
2022/04/20 09:21:12;;;;;;;4.97;1.70;;;21.90;23.60;;;;;;5035056;28;20052;-80
2022/04/20 09:23:38;;;;;;;10.85;2.53;;;21.30;23.80;;;;;;5052979;28;20100;-78
2022/04/20 09:26:12;;;;;;;8.80;2.03;;;21.20;24.70;;;;;;5052996;28;20383;-79
2022/04/20 09:28:39;;;;;;;8.43;2.58;;;22.30;23.90;;;;;;5052744;28;20025;-78
2022/04/20 09:31:05;;;;;;;;;;;23.80;23.10;;;;;;5053354;28;20126;-80
2022/04/20 09:33:49;;;;;;;10.07;3.37;;;23.90;23.00;;;;;;5034063;28;19959;-80
2022/04/20 09:36:15;;;;;;;7.55;1.58;;;23.70;22.60;;;;;;5034799;28;20136;-80
2022/04/20 09:39:01;;;;;;;9.85;1.98;;;23.90;22.70;;;;;;5052672;28;20091;-79
2022/04/20 09:41:27;;;;;;;6.00;2.70;;;24.20;22.70;;;;;;5034863;28;20033;-80
2022/04/20 09:44:09;;;;;;;7.53;2.63;;;25.00;22.50;;;;;;5035936;28;20477;-81
2022/04/20 09:49:35;;;;;;;5.00;1.60;;;26.80;21.90;;;;;;5053522;28;20032;-81
2022/04/20 09:52:13;;;;;;;7.30;2.17;;;26.00;21.80;;;;;;5051643;28;20029;-79
2022/04/20 09:54:53;;;;;;;7.03;2.30;;;26.20;22.30;;;;;;5052532;28;20041;-80
2022/04/20 09:57:20;;;;;;;7.15;1.85;;;26.40;22.40;;;;;;5052232;28;20459;-80
2022/04/20 10:00:04;;;;;;;4.40;1.80;;;26.70;22.20;;;;;;5034359;28;20082;-80
2022/04/20 10:02:30;;;;;;;5.28;2.05;;;27.60;22.50;;;;;;5052349;28;20081;-79
2022/04/20 10:04:57;;;;;;;11.77;2.33;;;27.90;21.70;;;;;;5034169;28;20478;-82
2022/04/20 10:07:23;;;;;;;6.40;2.00;;;27.40;22.10;;;;;;5034097;28;20401;-79
2022/04/20 10:09:49;;;;;;;5.20;2.20;;;28.00;21.60;;;;;;5051334;28;20024;-80
2022/04/20 10:12:17;;;;;;;4.65;1.75;;;27.10;21.80;;;;;;5051862;28;20120;-81
2022/04/20 10:17:43;;;;;;;6.35;2.13;;;27.00;21.80;;;;;;5052944;28;20382;-80
2022/04/20 10:20:11;;;;;;;3.33;1.55;;;25.70;22.20;;;;;;5035095;28;20094;-79
2022/04/20 10:22:39;;;;;;;6.18;1.60;;;24.80;22.60;;;;;;5053132;28;20108;-80
2022/04/20 10:25:06;;;;;;;7.93;2.00;;;23.40;23.20;;;;;;5054694;28;20029;-81
2022/04/20 10:27:58;;;;;;;5.97;1.98;;;22.30;23.80;;;;;;5052610;28;20134;-80
2022/04/20 10:30:30;;;;;;;5.53;1.77;;;20.70;24.90;;;;;;5052100;28;20057;-80
2022/04/20 10:33:06;;;;;;;5.25;1.88;;;19.60;25.60;;;;;;5052146;28;20044;-81
2022/04/20 10:35:33;;;;;;;8.27;1.45;;;18.80;26.00;;;;;;5051354;28;20045;-81
2022/04/20 10:38:12;;;;;;;9.43;1.77;;;18.10;26.90;;;;;;5051362;28;20434;-79
2022/04/20 10:40:57;;;;;;;7.10;2.28;;;17.70;27.10;;;;;;5033727;28;20040;-79
2022/04/20 10:43:24;;;;;;;11.52;2.92;;;17.10;28.00;;;;;;5051425;28;20047;-78
2022/04/20 10:46:14;;;;;;;9.48;1.88;;;16.70;28.20;;;;;;5033997;28;20098;-79
2022/04/20 10:48:50;;;;;;;8.75;2.65;;;16.60;28.50;;;;;;5051771;28;20131;-80
2022/04/20 10:51:18;;;;;;;11.43;2.93;;;16.30;29.10;;;;;;5052160;28;20040;-79
2022/04/20 10:53:47;;;;;;;6.05;2.95;;;16.20;29.80;;;;;;5051540;28;20478;-81
2022/04/20 10:56:14;;;;;;;6.38;3.15;;;16.20;30.50;;;;;;5050750;28;20040;-80
2022/04/20 10:59:04;;;;;;;7.80;2.07;;;16.10;30.00;;;;;;5051852;28;20025;-77
2022/04/20 11:01:31;;;;;;;4.95;2.05;;;16.10;29.80;;;;;;5052011;28;20074;-79
2022/04/20 11:04:02;;;;;;;2.58;1.20;;;16.00;29.70;;;;;;5051342;28;20041;-79
2022/04/20 11:06:48;;;;;;;6.53;2.33;;;16.10;29.80;;;;;;5051340;28;20406;-80
2022/04/20 11:09:41;;;;;;;3.88;1.33;;;16.10;29.80;;;;;;5051283;28;20028;-78
2022/04/20 11:21:03;;;;;;;6.30;2.45;;;15.80;30.00;;;;;;5035556;28;20044;-80
2022/04/20 11:23:48;;;;;;;7.85;2.97;;;15.80;30.20;;;;;;5035879;28;20029;-80
2022/04/20 11:26:21;;;;;;;5.78;2.75;;;15.90;30.90;;;;;;5051403;28;20037;-78
2022/04/20 11:28:51;;;;;;;4.75;2.00;;;15.90;30.70;;;;;;5037086;28;20508;-80
2022/04/20 11:31:17;;;;;;;4.85;1.48;;;15.90;30.70;;;;;;5055014;28;20029;-79
2022/04/20 11:33:43;;;;;;;4.53;1.38;;;16.00;30.80;;;;;;5037184;28;20075;-80
2022/04/20 11:36:14;;;;;;;6.47;1.98;;;16.10;30.90;;;;;;5034119;28;20103;-80
2022/04/20 11:38:42;;;;;;;12.15;3.50;;;16.00;30.80;;;;;;5035086;28;20029;-78
2022/04/20 11:41:12;;;;;;;6.70;2.10;;;16.00;31.30;;;;;;5032379;28;20473;-78
2022/04/20 11:43:39;;;;;;;5.97;1.77;;;16.10;30.80;;;;;;5034900;28;20022;-79
2022/04/20 11:46:08;;;;;;;10.10;2.50;;;16.10;30.80;;;;;;5034944;28;20092;-80
2022/04/20 11:48:38;;;;;;;7.70;2.65;;;16.00;30.50;;;;;;5027927;28;20275;-81
2022/04/20 11:51:08;;;;;;;5.93;3.65;;;16.10;30.70;;;;;;5014158;28;20026;-79
2022/04/20 11:53:40;;;;;;;7.75;3.33;;;16.10;30.80;;;;;;5016063;28;20058;-77
2022/04/20 11:56:10;;;;;;;5.75;1.60;;;16.10;31.00;;;;;;5019956;28;20380;-81
2022/04/20 11:58:39;;;;;;;5.97;2.25;;;16.10;30.80;;;;;;5034797;28;20036;-77
2022/04/20 12:01:12;;;;;;;9.55;3.53;;;16.00;31.70;;;;;;5034868;28;20441;-82
2022/04/20 12:03:41;;;;;;;7.30;3.10;;;16.00;31.00;;;;;;5017772;28;20475;-81
2022/04/20 12:06:14;;;;;;;5.30;1.35;;;15.90;31.10;;;;;;5034559;28;20021;-78
2022/04/20 12:08:40;;;;;;;6.85;1.83;;;15.90;31.40;;;;;;5034600;28;20113;-78
2022/04/20 12:11:10;;;;;;;4.13;1.60;;;15.90;31.30;;;;;;5034421;28;20034;-79
2022/04/20 12:13:39;;;;;;;5.65;1.88;;;15.90;31.30;;;;;;5031603;28;20112;-80
2022/04/20 12:16:11;;;;;;;6.95;2.58;;;15.80;31.50;;;;;;5033246;28;20022;-79
2022/04/20 12:18:41;;;;;;;6.00;1.95;;;15.70;31.60;;;;;;5029756;28;20418;-78
2022/04/20 12:21:43;;;;;;;7.50;1.92;;;15.70;32.20;;;;;;5034276;28;20037;-78
2022/04/20 12:24:29;;;;;;;7.65;2.08;;;15.80;32.00;;;;;;5032963;28;20053;-79
2022/04/20 12:26:56;;;;;;;3.47;1.70;;;15.90;31.70;;;;;;5033882;28;20103;-79
2022/04/20 12:29:24;;;;;;;3.20;1.88;;;15.90;31.90;;;;;;5034115;28;20028;-78
2022/04/20 12:31:54;;;;;;;11.23;2.05;;;16.00;31.90;;;;;;5034405;28;20080;-79
2022/04/20 12:34:21;;;;;;;8.73;2.20;;;16.10;31.80;;;;;;5032809;28;20396;-79
2022/04/20 12:36:51;;;;;;;10.93;2.53;;;16.10;31.50;;;;;;5054841;28;20124;-78
2022/04/20 12:39:45;;;;;;;2.63;1.58;;;16.20;31.50;;;;;;5055136;28;20017;-80
2022/04/20 12:42:15;;;;;;;3.20;1.75;;;16.20;31.60;;;;;;5051219;28;20436;-76
2022/04/20 12:44:51;;;;;;;5.82;1.67;;;16.10;31.80;;;;;;5053925;28;20017;-78
2022/04/20 12:47:17;;;;;;;4.70;1.50;;;16.10;32.20;;;;;;5053927;28;20105;-79
2022/04/20 12:49:53;;;;;;;4.00;1.23;;;16.00;32.30;;;;;;5052950;28;20096;-79
2022/04/20 12:52:25;;;;;;;3.05;1.20;;;15.90;32.30;;;;;;5053609;28;20040;-80
2022/04/20 12:54:59;;;;;;;2.85;1.60;;;15.80;32.50;;;;;;5053610;28;20036;-80
2022/04/20 13:02:57;;;;;;;6.60;1.83;;;16.00;33.10;;;;;;5053482;28;20522;-79
2022/04/20 13:05:23;;;;;;;2.97;1.30;;;16.20;33.00;;;;;;5052859;28;20021;-78
2022/04/20 13:07:49;;;;;;;9.63;2.33;;;16.20;32.80;;;;;;5053248;28;20486;-80
2022/04/20 13:10:15;;;;;;;7.75;1.48;;;16.20;32.80;;;;;;5053158;28;20040;-79
2022/04/20 13:12:54;;;;;;;6.60;2.00;;;16.20;33.00;;;;;;5035259;28;20486;-77
2022/04/20 13:15:22;;;;;;;5.68;2.10;;;16.10;33.60;;;;;;5053218;28;20017;-78
2022/04/20 13:17:48;;;;;;;;;;;16.10;33.50;;;;;;5053623;28;20096;-78
2022/04/20 13:20:16;;;;;;;6.25;2.03;;;16.10;33.60;;;;;;5052197;28;19912;-79
2022/04/20 13:22:42;;;;;;;7.13;1.60;;;16.00;33.70;;;;;;5035246;28;20132;-79
2022/04/20 13:27:56;;;;;;;3.80;1.70;;;16.00;33.40;;;;;;5053121;28;20055;-77
2022/04/20 13:30:29;;;;;;;4.07;1.35;;;15.90;33.60;;;;;;5053131;28;20017;-78
2022/04/20 13:32:56;;;;;;;5.20;1.90;;;15.80;33.60;;;;;;5035379;28;20025;-78
2022/04/20 13:35:24;;;;;;;7.93;2.05;;;15.80;33.70;;;;;;5034808;28;20140;-79
2022/04/20 13:37:52;;;;;;;5.93;1.50;;;15.80;33.80;;;;;;5053360;28;20036;-77
2022/04/20 13:40:18;;;;;;;;;;;16.10;33.60;;;;;;5054578;28;20021;-77